Time;durP1;ratioP1;P1;durP2;ratioP2;P2;SDS_P1;SDS_P2;PMS_P1;PMS_P2;Temp;Humidity;BMP_temperature;BMP_pressure;BME280_temperature;BME280_humidity;BME280_pressure;Samples;Min_cycle;Max_cycle;Signal;HPM_P1;HPM_P2
2022/06/27 00:00:47;;;;;;;10.88;6.85;;;19.20;78.50;;;;;;5114155;28;20032;-69
2022/06/27 00:03:13;;;;;;;8.70;6.70;;;19.20;78.70;;;;;;5096195;28;20070;-69
2022/06/27 00:05:39;;;;;;;10.02;7.10;;;19.20;78.80;;;;;;5114067;28;20024;-69
2022/06/27 00:08:04;;;;;;;10.52;6.70;;;19.30;78.70;;;;;;5114048;28;20084;-69
2022/06/27 00:10:30;;;;;;;10.10;6.80;;;19.40;78.30;;;;;;5095973;28;20032;-70
2022/06/27 00:12:56;;;;;;;10.05;7.22;;;19.40;78.00;;;;;;5113954;28;20032;-69
2022/06/27 00:15:22;;;;;;;12.05;6.68;;;19.40;77.70;;;;;;5114078;28;20025;-69
2022/06/27 00:17:48;;;;;;;11.52;7.10;;;19.50;77.60;;;;;;5113891;28;20021;-69
2022/06/27 00:20:13;;;;;;;11.02;7.10;;;19.50;77.50;;;;;;5113881;28;20055;-69
2022/06/27 00:22:39;;;;;;;10.65;7.07;;;19.50;77.50;;;;;;5096051;28;20061;-70
2022/06/27 00:25:06;;;;;;;11.93;7.20;;;19.50;77.60;;;;;;5113782;28;20114;-69
2022/06/27 00:27:32;;;;;;;9.50;6.70;;;19.40;77.70;;;;;;5113763;28;20061;-69
2022/06/27 00:29:57;;;;;;;11.38;7.07;;;19.40;77.60;;;;;;5113370;28;20056;-69
2022/06/27 00:32:23;;;;;;;12.70;7.88;;;19.50;77.50;;;;;;5113703;28;20051;-69
2022/06/27 00:34:50;;;;;;;9.70;7.20;;;19.40;77.30;;;;;;5113788;28;20028;-69
2022/06/27 00:37:16;;;;;;;10.27;7.13;;;19.30;77.40;;;;;;5113563;28;20035;-69
2022/06/27 00:39:41;;;;;;;10.02;7.25;;;19.30;77.90;;;;;;5113563;28;20032;-69
2022/06/27 00:42:07;;;;;;;10.05;7.05;;;19.10;78.50;;;;;;5113519;28;20038;-69
2022/06/27 00:44:35;;;;;;;10.77;7.40;;;19.00;79.00;;;;;;5095677;28;20030;-69
2022/06/27 00:47:06;;;;;;;12.23;7.88;;;18.90;79.30;;;;;;5113529;28;20020;-69
2022/06/27 00:49:32;;;;;;;9.55;7.15;;;19.00;79.50;;;;;;5113459;28;20028;-69
2022/06/27 00:51:58;;;;;;;12.95;7.93;;;19.10;79.30;;;;;;5113467;28;20024;-69
2022/06/27 00:54:25;;;;;;;9.60;7.38;;;19.20;79.20;;;;;;5112878;28;20055;-70
2022/06/27 00:56:51;;;;;;;11.40;8.30;;;19.20;79.10;;;;;;5113399;28;20052;-69
2022/06/27 00:59:18;;;;;;;11.38;7.72;;;19.20;79.10;;;;;;5113349;28;20027;-69
2022/06/27 01:01:44;;;;;;;11.90;7.60;;;19.30;79.00;;;;;;5113332;28;20095;-69
2022/06/27 01:04:09;;;;;;;11.40;8.30;;;19.40;78.90;;;;;;5113320;28;20031;-69
2022/06/27 01:06:35;;;;;;;10.45;7.88;;;19.40;78.80;;;;;;5113311;28;20043;-69
2022/06/27 01:09:01;;;;;;;10.23;7.75;;;19.40;78.90;;;;;;5113203;28;20050;-69
2022/06/27 01:11:27;;;;;;;12.30;8.25;;;19.40;78.80;;;;;;5113351;28;20024;-69
2022/06/27 01:13:53;;;;;;;11.10;7.47;;;19.40;78.60;;;;;;5095459;28;20020;-70
2022/06/27 01:16:19;;;;;;;14.15;7.85;;;19.40;78.30;;;;;;5113207;28;20592;-70
2022/06/27 01:18:45;;;;;;;11.60;8.25;;;19.40;78.20;;;;;;5113188;28;20433;-69
2022/06/27 01:21:20;;;;;;;11.18;7.82;;;19.30;78.50;;;;;;5113273;28;20029;-69
2022/06/27 01:23:45;;;;;;;12.07;8.23;;;19.20;79.00;;;;;;5113207;28;20024;-69
2022/06/27 01:26:12;;;;;;;13.38;8.77;;;19.10;79.70;;;;;;5113137;28;20136;-69
2022/06/27 01:28:37;;;;;;;12.57;8.20;;;19.10;79.80;;;;;;5112852;28;20143;-70
2022/06/27 01:31:03;;;;;;;10.88;8.40;;;19.10;80.10;;;;;;5113006;28;20028;-69
2022/06/27 01:33:29;;;;;;;10.60;8.13;;;19.10;79.90;;;;;;5113204;28;20467;-69
2022/06/27 01:36:41;;;;;;;14.43;8.60;;;19.30;79.60;;;;;;5095152;28;20028;-69
2022/06/27 01:38:40;;;;;;;13.95;8.25;;;19.30;79.20;;;;;;5113039;28;20039;-69
2022/06/27 01:41:06;;;;;;;15.40;9.35;;;19.40;78.80;;;;;;5112964;28;20371;-69
2022/06/27 01:43:32;;;;;;;12.60;8.48;;;19.40;78.50;;;;;;5112984;28;20024;-70
2022/06/27 01:45:58;;;;;;;10.93;8.70;;;19.40;78.40;;;;;;5112906;28;20035;-69
2022/06/27 01:48:24;;;;;;;11.38;8.20;;;19.40;78.30;;;;;;5095096;28;20039;-69
2022/06/27 01:50:50;;;;;;;10.70;8.35;;;19.40;78.30;;;;;;5112928;28;20038;-69
2022/06/27 01:53:17;;;;;;;9.30;7.50;;;19.40;78.30;;;;;;5095048;28;20063;-70
2022/06/27 01:55:43;;;;;;;13.13;8.18;;;19.40;78.40;;;;;;5112884;28;20020;-69
2022/06/27 01:58:10;;;;;;;11.48;8.15;;;19.40;78.40;;;;;;5112783;28;20055;-70
2022/06/27 02:00:36;;;;;;;13.27;7.63;;;19.40;78.30;;;;;;5112836;28;20032;-70
2022/06/27 02:03:02;;;;;;;12.43;8.25;;;19.40;78.30;;;;;;5112912;28;20027;-70
2022/06/27 02:05:28;;;;;;;11.90;7.70;;;19.40;78.30;;;;;;5113576;28;20024;-69
2022/06/27 02:07:57;;;;;;;11.90;8.23;;;19.40;78.40;;;;;;5116356;28;20088;-70
2022/06/27 02:10:22;;;;;;;13.10;7.68;;;19.30;78.50;;;;;;5116238;28;20028;-69
2022/06/27 02:12:49;;;;;;;12.35;7.75;;;19.30;78.60;;;;;;5116269;28;20022;-70
2022/06/27 02:15:15;;;;;;;11.77;8.13;;;19.30;78.60;;;;;;5116270;28;20031;-69
2022/06/27 02:17:40;;;;;;;16.25;8.40;;;19.30;78.40;;;;;;5116214;28;20055;-69
2022/06/27 02:20:07;;;;;;;10.23;7.78;;;19.30;78.20;;;;;;5116120;28;20080;-69
2022/06/27 02:22:32;;;;;;;12.07;8.05;;;19.30;78.10;;;;;;5116131;28;20460;-69
2022/06/27 02:24:58;;;;;;;11.43;8.05;;;19.20;78.30;;;;;;5116040;28;20028;-69
2022/06/27 02:27:24;;;;;;;12.02;8.30;;;19.10;78.60;;;;;;5115952;28;20020;-69
2022/06/27 02:29:50;;;;;;;11.35;8.00;;;19.10;78.80;;;;;;5115657;28;20046;-69
2022/06/27 02:32:16;;;;;;;12.70;8.55;;;19.20;78.80;;;;;;5115880;28;20124;-69
2022/06/27 02:34:42;;;;;;;11.32;8.10;;;19.10;79.00;;;;;;5115874;28;20085;-69
2022/06/27 02:37:09;;;;;;;13.65;8.90;;;19.10;79.50;;;;;;5115848;28;20025;-69
2022/06/27 02:39:38;;;;;;;11.43;7.85;;;19.10;79.60;;;;;;5115790;28;20532;-69
2022/06/27 02:42:07;;;;;;;11.00;7.88;;;19.10;79.60;;;;;;5115735;28;20016;-69
2022/06/27 02:44:33;;;;;;;12.90;7.57;;;19.20;79.50;;;;;;5115663;28;20024;-69
2022/06/27 02:46:59;;;;;;;13.45;8.50;;;19.10;79.30;;;;;;5115609;28;20073;-69
2022/06/27 02:49:25;;;;;;;12.45;8.15;;;19.10;79.40;;;;;;5115492;28;20060;-69
2022/06/27 02:52:05;;;;;;;12.85;7.80;;;19.10;79.50;;;;;;5115559;28;20083;-69
2022/06/27 02:54:44;;;;;;;11.52;7.78;;;19.10;79.40;;;;;;5115497;28;20020;-69
2022/06/27 02:57:32;;;;;;;12.98;7.60;;;19.10;79.30;;;;;;5115479;28;20020;-70
2022/06/27 02:59:58;;;;;;;11.02;7.65;;;19.10;79.00;;;;;;5115399;28;20027;-69
2022/06/27 03:02:28;;;;;;;10.82;7.95;;;19.20;79.10;;;;;;5115466;28;20062;-69
2022/06/27 03:04:56;;;;;;;10.25;7.78;;;19.10;79.00;;;;;;5115459;28;20020;-70
2022/06/27 03:07:21;;;;;;;10.57;7.95;;;19.10;79.10;;;;;;5115260;28;20020;-69
2022/06/27 03:09:47;;;;;;;11.55;7.15;;;19.10;79.00;;;;;;5115078;28;20038;-69
2022/06/27 03:12:13;;;;;;;9.70;7.47;;;19.10;78.90;;;;;;5115142;28;20088;-69
2022/06/27 03:14:38;;;;;;;10.60;7.75;;;19.10;78.70;;;;;;5115108;28;20024;-69
2022/06/27 03:17:04;;;;;;;10.23;7.00;;;19.00;78.80;;;;;;5114695;28;20475;-70
2022/06/27 03:19:30;;;;;;;13.18;7.65;;;19.00;78.70;;;;;;5115013;28;20071;-69
2022/06/27 03:21:56;;;;;;;11.20;7.68;;;19.00;78.60;;;;;;5114929;28;20051;-70
2022/06/27 03:24:22;;;;;;;10.02;6.95;;;18.90;78.80;;;;;;5114919;28;20057;-69
2022/06/27 03:26:48;;;;;;;13.85;7.82;;;18.90;78.70;;;;;;5114990;28;20024;-70
2022/06/27 03:29:14;;;;;;;12.18;7.45;;;18.80;78.60;;;;;;5114530;28;20051;-69
2022/06/27 03:31:40;;;;;;;11.70;7.50;;;18.70;78.50;;;;;;5096851;28;20048;-69
2022/06/27 03:34:06;;;;;;;10.70;7.45;;;18.70;78.50;;;;;;5114681;28;20150;-70
2022/06/27 03:36:32;;;;;;;12.18;8.15;;;18.60;79.20;;;;;;5114674;28;20016;-68
2022/06/27 03:38:58;;;;;;;9.95;7.32;;;18.50;78.80;;;;;;5114617;28;20039;-67
2022/06/27 03:41:23;;;;;;;9.93;6.65;;;18.50;79.00;;;;;;5114570;28;20020;-67
2022/06/27 03:43:49;;;;;;;10.82;6.40;;;18.50;78.90;;;;;;5114493;28;20080;-67
2022/06/27 03:46:15;;;;;;;9.05;6.05;;;18.50;78.80;;;;;;5114528;28;20054;-69
2022/06/27 03:51:24;;;;;;;9.93;6.70;;;18.50;77.90;;;;;;5114525;28;20448;-69
2022/06/27 03:53:50;;;;;;;10.57;7.35;;;18.30;77.50;;;;;;5114344;28;20052;-70
2022/06/27 03:56:16;;;;;;;11.15;7.28;;;18.20;78.10;;;;;;5114289;28;20031;-70
2022/06/27 03:58:41;;;;;;;10.15;7.55;;;18.20;78.30;;;;;;5114234;28;20058;-69
2022/06/27 04:01:07;;;;;;;11.30;7.35;;;18.30;78.10;;;;;;5114144;28;20058;-69
2022/06/27 04:03:33;;;;;;;13.13;7.38;;;18.30;77.50;;;;;;5114184;28;20076;-70
2022/06/27 04:05:58;;;;;;;11.02;7.82;;;18.30;77.30;;;;;;5096257;28;20081;-69
2022/06/27 04:08:24;;;;;;;13.60;8.35;;;18.30;77.70;;;;;;5114038;28;20039;-70
2022/06/27 04:10:49;;;;;;;11.48;8.18;;;18.20;77.70;;;;;;5113927;28;20032;-70
2022/06/27 04:13:15;;;;;;;11.23;7.90;;;18.30;77.90;;;;;;5113999;28;20080;-70
2022/06/27 04:15:41;;;;;;;13.30;9.00;;;18.30;77.70;;;;;;5113935;28;20054;-70
2022/06/27 04:18:07;;;;;;;13.50;8.38;;;18.30;77.90;;;;;;5114009;28;20028;-70
2022/06/27 04:20:32;;;;;;;9.93;7.68;;;18.30;78.00;;;;;;5113823;28;20103;-69
2022/06/27 04:22:58;;;;;;;10.77;7.55;;;18.30;77.70;;;;;;5113854;28;20079;-69
2022/06/27 04:25:23;;;;;;;11.30;7.32;;;18.30;77.40;;;;;;5113934;28;20050;-70
2022/06/27 04:27:49;;;;;;;10.88;7.35;;;18.20;77.30;;;;;;5112984;28;20036;-70
2022/06/27 04:30:18;;;;;;;13.52;7.97;;;18.20;77.90;;;;;;5113452;28;20048;-70
2022/06/27 04:32:44;;;;;;;10.93;6.95;;;18.20;78.10;;;;;;5113818;28;20079;-70
2022/06/27 04:35:11;;;;;;;10.90;7.47;;;18.20;78.10;;;;;;5113613;28;20160;-70
2022/06/27 04:37:41;;;;;;;12.20;8.20;;;18.20;78.10;;;;;;5113654;28;20020;-69
2022/06/27 04:40:08;;;;;;;14.85;8.52;;;18.20;78.20;;;;;;5113569;28;20032;-70
2022/06/27 04:42:33;;;;;;;13.18;9.20;;;18.20;78.30;;;;;;5095719;28;20399;-69
2022/06/27 04:44:59;;;;;;;14.13;8.98;;;18.30;78.40;;;;;;5113530;28;20040;-69
2022/06/27 04:47:25;;;;;;;15.15;9.57;;;18.30;78.70;;;;;;5113501;28;20028;-70
2022/06/27 04:49:52;;;;;;;15.35;9.38;;;18.40;78.90;;;;;;5113438;28;20024;-69
2022/06/27 04:52:18;;;;;;;11.82;8.70;;;18.50;79.00;;;;;;5113429;28;20020;-68
2022/06/27 04:54:43;;;;;;;13.95;8.68;;;18.50;79.00;;;;;;5113396;28;20020;-69
2022/06/27 04:57:09;;;;;;;14.02;9.70;;;18.50;79.10;;;;;;5113424;28;20028;-70
2022/06/27 04:59:35;;;;;;;14.15;9.70;;;18.60;79.30;;;;;;5113425;28;20031;-70
2022/06/27 05:02:01;;;;;;;14.70;9.95;;;18.60;79.50;;;;;;5113372;28;20035;-70
2022/06/27 05:04:29;;;;;;;15.63;10.07;;;18.60;79.60;;;;;;5113428;28;20035;-70
2022/06/27 05:06:55;;;;;;;14.10;9.90;;;18.60;79.70;;;;;;5113302;28;20031;-69
2022/06/27 05:09:21;;;;;;;14.98;9.90;;;18.70;79.80;;;;;;5113212;28;20024;-70
2022/06/27 05:11:50;;;;;;;14.00;10.02;;;18.70;79.90;;;;;;5113246;28;20016;-70
2022/06/27 05:14:16;;;;;;;13.25;9.65;;;18.70;80.00;;;;;;5113261;28;20017;-70
2022/06/27 05:16:42;;;;;;;16.33;9.77;;;18.70;79.90;;;;;;5113244;28;20027;-70
2022/06/27 05:19:09;;;;;;;18.70;10.00;;;18.80;79.80;;;;;;5113143;28;20107;-69
2022/06/27 05:21:35;;;;;;;16.20;10.52;;;18.80;79.80;;;;;;5113162;28;20017;-69
2022/06/27 05:24:02;;;;;;;15.32;10.02;;;18.90;79.90;;;;;;5113193;28;20025;-70
2022/06/27 05:26:28;;;;;;;15.07;10.43;;;18.90;79.70;;;;;;5113113;28;20024;-70
2022/06/27 05:28:55;;;;;;;16.15;11.52;;;18.90;79.90;;;;;;5112899;28;20087;-69
2022/06/27 05:31:21;;;;;;;15.73;10.73;;;18.90;80.10;;;;;;5112974;28;20031;-69
2022/06/27 05:33:47;;;;;;;16.33;11.00;;;18.90;80.10;;;;;;5113053;28;20020;-69
2022/06/27 05:36:12;;;;;;;18.10;11.10;;;18.90;80.10;;;;;;5113011;28;20031;-69
2022/06/27 05:38:39;;;;;;;14.88;10.10;;;18.90;80.00;;;;;;5112956;28;20031;-69
2022/06/27 05:41:05;;;;;;;15.45;10.55;;;19.00;80.10;;;;;;5116686;28;20024;-69
2022/06/27 05:43:31;;;;;;;12.90;9.70;;;18.90;80.00;;;;;;5116910;28;20024;-69
2022/06/27 05:45:57;;;;;;;17.52;11.07;;;19.00;80.00;;;;;;5116872;28;20031;-69
2022/06/27 05:48:22;;;;;;;16.65;10.93;;;18.90;80.00;;;;;;5098755;28;20032;-69
2022/06/27 05:50:48;;;;;;;16.02;11.23;;;18.80;80.70;;;;;;5116657;28;20036;-70
2022/06/27 05:53:14;;;;;;;16.33;10.98;;;18.80;80.80;;;;;;5116814;28;20035;-70
2022/06/27 05:55:40;;;;;;;17.35;11.63;;;18.90;80.80;;;;;;5116613;28;20025;-68
2022/06/27 05:58:08;;;;;;;16.52;11.68;;;18.80;81.10;;;;;;5116589;28;20042;-69
2022/06/27 06:00:34;;;;;;;18.15;12.00;;;18.90;81.10;;;;;;5116563;28;20027;-69
2022/06/27 06:03:00;;;;;;;20.23;13.70;;;18.90;81.00;;;;;;5116492;28;20025;-70
2022/06/27 06:05:28;;;;;;;19.17;13.73;;;18.90;80.80;;;;;;5116492;28;20032;-70
2022/06/27 06:07:58;;;;;;;22.30;14.15;;;19.00;80.70;;;;;;5116448;28;20020;-70
2022/06/27 06:10:25;;;;;;;19.88;13.90;;;19.00;80.80;;;;;;5116362;28;20043;-69
2022/06/27 06:12:51;;;;;;;18.98;12.50;;;19.00;81.00;;;;;;5116320;28;20016;-69
2022/06/27 06:15:17;;;;;;;15.18;10.95;;;19.10;80.90;;;;;;5116223;28;20016;-70
2022/06/27 06:17:43;;;;;;;16.73;11.52;;;19.10;80.60;;;;;;5116202;28;20044;-69
2022/06/27 06:20:09;;;;;;;16.42;11.57;;;19.10;80.70;;;;;;5116254;28;20499;-69
2022/06/27 06:22:36;;;;;;;18.83;11.02;;;19.10;80.70;;;;;;5116139;28;20035;-69
2022/06/27 06:25:02;;;;;;;14.45;10.45;;;19.10;80.60;;;;;;5116089;28;20025;-70
2022/06/27 06:27:29;;;;;;;15.95;10.80;;;19.10;80.60;;;;;;5116028;28;20016;-69
2022/06/27 06:29:54;;;;;;;16.55;10.38;;;19.10;80.60;;;;;;5115699;28;20119;-69
2022/06/27 06:32:20;;;;;;;15.45;10.85;;;19.20;80.60;;;;;;5115941;28;20050;-69
2022/06/27 06:34:48;;;;;;;17.95;10.63;;;19.20;80.60;;;;;;5115895;28;20028;-70
2022/06/27 06:37:13;;;;;;;16.88;10.52;;;19.20;80.60;;;;;;5115814;28;20017;-69
2022/06/27 06:39:39;;;;;;;17.92;10.70;;;19.20;80.50;;;;;;5115826;28;20057;-69
2022/06/27 06:42:05;;;;;;;16.67;11.68;;;19.30;80.40;;;;;;5115730;28;20027;-69
2022/06/27 06:44:31;;;;;;;19.90;11.95;;;19.20;80.60;;;;;;5115671;28;20039;-69
2022/06/27 06:46:57;;;;;;;21.48;12.05;;;19.20;80.60;;;;;;5115614;28;20062;-70
2022/06/27 06:49:23;;;;;;;17.05;12.93;;;19.20;80.30;;;;;;5115525;28;20032;-69
2022/06/27 06:51:50;;;;;;;20.23;12.88;;;19.20;80.30;;;;;;5114704;28;20471;-69
2022/06/27 06:54:17;;;;;;;20.05;12.88;;;19.20;80.30;;;;;;5115549;28;20016;-69
2022/06/27 06:56:49;;;;;;;19.35;12.65;;;19.20;80.20;;;;;;5115489;28;20027;-69
2022/06/27 06:59:17;;;;;;;17.65;12.55;;;19.20;80.40;;;;;;5115430;28;20024;-70
2022/06/27 07:01:43;;;;;;;17.70;12.75;;;19.20;80.60;;;;;;5115339;28;20379;-69
2022/06/27 07:04:11;;;;;;;16.40;11.80;;;19.30;81.00;;;;;;5115277;28;20020;-69
2022/06/27 07:06:38;;;;;;;20.75;12.00;;;19.30;81.00;;;;;;5115200;28;20046;-70
2022/06/27 07:09:04;;;;;;;19.05;12.52;;;19.40;81.00;;;;;;5115157;28;20039;-69
2022/06/27 07:11:36;;;;;;;19.88;13.48;;;19.40;80.80;;;;;;5115140;28;20020;-70
2022/06/27 07:14:02;;;;;;;21.42;13.30;;;19.40;80.70;;;;;;5115272;28;20023;-70
2022/06/27 07:16:29;;;;;;;24.58;14.43;;;19.50;80.60;;;;;;5115094;28;20024;-70
2022/06/27 07:18:55;;;;;;;21.80;14.02;;;19.50;80.60;;;;;;5114998;28;20020;-69
2022/06/27 07:21:22;;;;;;;19.33;13.93;;;19.50;80.50;;;;;;5115065;28;20024;-69
2022/06/27 07:23:49;;;;;;;19.60;13.48;;;19.50;80.50;;;;;;5114928;28;20024;-70
2022/06/27 07:26:17;;;;;;;19.02;13.90;;;19.50;80.40;;;;;;5114901;28;20016;-70
2022/06/27 07:28:43;;;;;;;21.40;15.45;;;19.50;80.30;;;;;;5114623;28;20063;-70
2022/06/27 07:31:12;;;;;;;25.20;17.83;;;19.50;80.30;;;;;;5114718;28;20048;-69
2022/06/27 07:33:46;;;;;;;26.38;18.17;;;19.60;80.20;;;;;;5114686;28;20020;-70
2022/06/27 07:36:15;;;;;;;27.88;19.13;;;19.60;80.10;;;;;;5114753;28;20012;-69
2022/06/27 07:38:46;;;;;;;24.83;18.65;;;19.60;80.00;;;;;;5114592;28;20035;-69
2022/06/27 07:41:13;;;;;;;24.83;18.63;;;19.60;80.10;;;;;;5096896;28;20028;-70
2022/06/27 07:43:40;;;;;;;24.17;17.13;;;19.60;80.20;;;;;;5114552;28;20039;-70
2022/06/27 07:46:06;;;;;;;23.50;16.77;;;19.60;80.30;;;;;;5114486;28;20053;-69
2022/06/27 07:48:33;;;;;;;23.40;16.95;;;19.60;80.10;;;;;;5096466;28;20016;-70
2022/06/27 07:51:00;;;;;;;23.38;16.30;;;19.70;80.20;;;;;;5114263;28;20030;-70
2022/06/27 07:53:26;;;;;;;25.02;16.23;;;19.70;80.10;;;;;;5114382;28;20046;-70
2022/06/27 07:55:57;;;;;;;22.42;16.80;;;19.80;80.00;;;;;;5114444;28;20020;-70
2022/06/27 07:58:30;;;;;;;24.48;17.42;;;19.80;79.90;;;;;;5114315;28;20077;-70
2022/06/27 08:00:57;;;;;;;24.27;16.80;;;19.80;79.90;;;;;;5114312;28;20020;-70
2022/06/27 08:03:41;;;;;;;25.60;16.52;;;19.80;79.80;;;;;;5114277;28;20028;-70
2022/06/27 08:06:16;;;;;;;25.83;17.50;;;19.90;79.80;;;;;;5114322;28;20028;-70
2022/06/27 08:08:50;;;;;;;25.83;14.52;;;19.90;80.40;;;;;;5114132;28;20028;-70
2022/06/27 08:11:17;;;;;;;21.38;14.10;;;19.90;79.50;;;;;;5114002;28;20032;-67
2022/06/27 08:13:45;;;;;;;18.90;13.40;;;19.90;79.10;;;;;;5113908;28;20031;-67
2022/06/27 08:16:14;;;;;;;23.65;14.93;;;19.90;78.30;;;;;;5114122;28;20050;-67
2022/06/27 08:18:41;;;;;;;19.00;14.07;;;19.80;78.50;;;;;;5113885;28;20372;-67
2022/06/27 08:21:08;;;;;;;22.20;14.38;;;19.80;78.80;;;;;;5113873;28;20032;-67
2022/06/27 08:23:36;;;;;;;22.00;14.05;;;19.80;78.60;;;;;;5114010;28;20020;-67
2022/06/27 08:26:07;;;;;;;20.58;13.75;;;19.90;78.30;;;;;;5113831;28;20087;-67
2022/06/27 08:28:35;;;;;;;17.77;13.13;;;19.80;79.00;;;;;;5095943;28;20111;-67
2022/06/27 08:31:02;;;;;;;21.55;14.93;;;19.90;78.60;;;;;;5113760;28;20024;-67
2022/06/27 08:33:31;;;;;;;20.05;14.48;;;19.90;78.00;;;;;;5113666;28;20044;-67
2022/06/27 08:35:58;;;;;;;21.60;14.05;;;20.00;78.00;;;;;;5113616;28;20032;-69
2022/06/27 08:38:24;;;;;;;24.00;14.60;;;20.00;77.60;;;;;;5113618;28;20020;-70
2022/06/27 08:40:56;;;;;;;21.38;14.90;;;20.00;77.20;;;;;;5113574;28;20024;-70
2022/06/27 08:43:23;;;;;;;;;;;20.00;77.40;;;;;;5114179;28;20024;-70
2022/06/27 08:45:51;;;;;;;23.38;15.48;;;20.10;77.60;;;;;;5113561;28;19911;-70
2022/06/27 08:48:17;;;;;;;21.35;14.57;;;20.00;77.40;;;;;;5113482;28;20069;-70
2022/06/27 08:50:44;;;;;;;21.92;15.07;;;20.00;77.30;;;;;;5113408;28;20024;-70
2022/06/27 08:53:12;;;;;;;20.98;15.95;;;20.00;77.20;;;;;;5095953;28;20012;-70
2022/06/27 08:55:42;;;;;;;19.92;14.50;;;20.00;77.20;;;;;;5113434;28;20016;-70
2022/06/27 08:58:10;;;;;;;19.58;14.80;;;20.00;76.60;;;;;;5113502;28;20027;-70
2022/06/27 09:00:40;;;;;;;22.38;15.18;;;20.00;76.40;;;;;;5113520;28;20047;-69
2022/06/27 09:03:09;;;;;;;20.80;15.10;;;20.10;76.40;;;;;;5113406;28;20028;-67
2022/06/27 09:05:36;;;;;;;21.42;14.93;;;20.10;76.60;;;;;;5113436;28;20040;-67
2022/06/27 09:08:06;;;;;;;21.02;15.25;;;20.20;76.70;;;;;;5095377;28;20092;-67
2022/06/27 09:10:36;;;;;;;22.05;15.30;;;20.30;76.30;;;;;;5113361;28;20076;-67
2022/06/27 09:13:02;;;;;;;20.60;14.48;;;20.40;76.40;;;;;;5113244;28;20048;-67
2022/06/27 09:15:52;;;;;;;19.55;13.77;;;20.40;75.90;;;;;;5115972;28;20035;-67
2022/06/27 09:18:21;;;;;;;20.00;14.82;;;20.50;75.00;;;;;;5109086;28;20088;-67
2022/06/27 09:20:52;;;;;;;21.95;15.63;;;20.40;74.30;;;;;;5117349;28;20034;-67
2022/06/27 09:23:31;;;;;;;21.38;15.18;;;20.50;74.60;;;;;;5117405;28;20084;-67
2022/06/27 09:26:06;;;;;;;19.90;14.75;;;20.50;74.30;;;;;;5117203;28;20074;-67
2022/06/27 09:28:47;;;;;;;20.60;15.10;;;20.50;74.50;;;;;;5117010;28;20048;-67
2022/06/27 09:31:30;;;;;;;18.98;13.57;;;20.60;74.60;;;;;;5117032;28;20032;-67
2022/06/27 09:34:08;;;;;;;17.70;12.80;;;20.70;74.40;;;;;;5117165;28;20017;-67
2022/06/27 09:36:35;;;;;;;15.88;11.48;;;20.70;74.00;;;;;;5117083;28;20016;-67
2022/06/27 09:39:03;;;;;;;15.80;11.13;;;20.60;73.10;;;;;;5116956;28;20024;-67
2022/06/27 09:41:33;;;;;;;15.95;11.70;;;20.70;73.50;;;;;;5116935;28;20058;-67
2022/06/27 09:44:10;;;;;;;15.32;10.68;;;20.70;73.00;;;;;;5099686;28;20035;-67
2022/06/27 09:46:45;;;;;;;13.70;10.23;;;20.60;73.10;;;;;;5116854;28;20032;-67
2022/06/27 09:49:12;;;;;;;13.60;8.65;;;20.70;73.50;;;;;;5116738;28;20021;-67
2022/06/27 09:51:40;;;;;;;13.13;8.73;;;20.70;72.40;;;;;;5116767;28;20020;-67
2022/06/27 09:54:16;;;;;;;14.57;8.95;;;20.70;72.10;;;;;;5116713;28;20024;-67
2022/06/27 09:56:42;;;;;;;18.02;10.80;;;20.70;71.20;;;;;;5116716;28;20028;-67
2022/06/27 09:59:10;;;;;;;15.25;10.82;;;20.70;71.70;;;;;;5116617;28;20025;-67
2022/06/27 10:01:37;;;;;;;19.67;10.82;;;20.70;71.70;;;;;;5116533;28;20028;-67
2022/06/27 10:04:03;;;;;;;16.48;11.10;;;20.70;72.50;;;;;;5116467;28;20020;-67
2022/06/27 10:06:30;;;;;;;16.40;10.75;;;20.60;71.90;;;;;;5116419;28;20032;-67
2022/06/27 10:08:56;;;;;;;18.60;11.23;;;20.50;71.30;;;;;;5116418;28;20020;-67
2022/06/27 10:11:23;;;;;;;15.43;11.48;;;20.60;71.70;;;;;;5098410;28;20032;-67
2022/06/27 10:14:14;;;;;;;18.42;11.48;;;20.60;71.40;;;;;;5116326;28;20030;-67
2022/06/27 10:17:13;;;;;;;15.25;10.93;;;20.60;71.20;;;;;;5116473;28;20024;-67
2022/06/27 10:20:05;;;;;;;16.67;10.90;;;20.60;70.10;;;;;;5104971;28;20032;-67
2022/06/27 10:22:31;;;;;;;16.75;10.90;;;20.70;71.60;;;;;;5116361;28;20097;-67
2022/06/27 10:25:25;;;;;;;18.30;11.73;;;20.70;72.10;;;;;;5116123;28;20024;-67
2022/06/27 10:28:10;;;;;;;14.98;10.27;;;20.90;71.40;;;;;;5097153;28;20043;-67
2022/06/27 10:30:39;;;;;;;14.68;10.88;;;21.00;70.80;;;;;;5115952;28;20066;-67
2022/06/27 10:33:25;;;;;;;18.55;11.52;;;21.10;70.80;;;;;;5115891;28;20035;-67
2022/06/27 10:35:54;;;;;;;17.52;12.43;;;21.20;70.30;;;;;;5115884;28;20016;-66
2022/06/27 10:38:25;;;;;;;18.13;11.93;;;21.30;68.90;;;;;;5115857;28;20032;-67
2022/06/27 10:40:52;;;;;;;18.38;12.30;;;21.20;69.20;;;;;;5115871;28;20064;-67
2022/06/27 10:43:36;;;;;;;18.13;12.20;;;21.10;70.80;;;;;;5097699;28;20024;-67
2022/06/27 10:46:11;;;;;;;16.65;11.15;;;21.30;70.80;;;;;;5115696;28;20076;-67
2022/06/27 10:48:54;;;;;;;18.10;11.30;;;21.30;70.70;;;;;;5115817;28;20036;-67
2022/06/27 10:51:19;;;;;;;15.90;11.15;;;21.30;70.20;;;;;;5115576;28;20028;-68
2022/06/27 10:53:46;;;;;;;18.13;11.50;;;21.30;69.60;;;;;;5115585;28;20031;-67
2022/06/27 10:56:51;;;;;;;16.65;11.10;;;21.40;69.70;;;;;;5115485;28;20027;-67
2022/06/27 10:59:16;;;;;;;16.02;10.30;;;21.50;68.80;;;;;;5095982;28;20100;-67
2022/06/27 11:02:03;;;;;;;17.60;10.52;;;21.50;69.20;;;;;;5115324;28;20020;-67
2022/06/27 11:04:33;;;;;;;16.95;10.57;;;21.50;68.40;;;;;;5115152;28;20017;-67
2022/06/27 11:07:00;;;;;;;13.85;9.18;;;21.40;66.90;;;;;;5097310;28;20075;-70
2022/06/27 11:09:39;;;;;;;14.25;9.50;;;21.50;68.00;;;;;;5115219;28;20016;-70
2022/06/27 11:12:07;;;;;;;12.25;8.50;;;21.60;67.80;;;;;;5097240;28;20024;-69
2022/06/27 11:14:52;;;;;;;15.20;7.90;;;21.60;68.30;;;;;;5115156;28;20035;-70
2022/06/27 11:17:39;;;;;;;10.02;7.25;;;21.70;65.20;;;;;;5115228;28;20020;-70
2022/06/27 11:20:15;;;;;;;11.70;6.38;;;21.70;65.90;;;;;;5115033;28;20051;-70
2022/06/27 11:22:46;;;;;;;10.05;6.50;;;21.60;63.60;;;;;;5114993;28;20079;-70
2022/06/27 11:25:12;;;;;;;10.63;6.97;;;21.50;63.20;;;;;;5114955;28;20031;-70
2022/06/27 11:27:51;;;;;;;9.90;6.80;;;21.40;63.50;;;;;;5114884;28;20043;-70
2022/06/27 11:33:21;;;;;;;9.98;7.25;;;21.50;63.40;;;;;;5115004;28;20036;-70
2022/06/27 11:35:48;;;;;;;10.38;6.97;;;21.50;63.70;;;;;;5114706;28;20016;-69
2022/06/27 11:38:21;;;;;;;12.32;7.20;;;21.50;64.30;;;;;;5114353;28;20048;-68
2022/06/27 11:41:02;;;;;;;11.15;7.50;;;21.50;64.20;;;;;;5114817;28;20045;-68
2022/06/27 11:44:02;;;;;;;11.43;8.02;;;21.60;64.10;;;;;;5114757;28;20051;-68
2022/06/27 11:46:45;;;;;;;14.45;8.45;;;21.60;65.00;;;;;;5060426;28;20043;-68
2022/06/27 11:49:16;;;;;;;15.30;8.88;;;21.60;65.20;;;;;;5114497;28;20418;-68
2022/06/27 11:51:44;;;;;;;11.23;8.85;;;21.50;64.80;;;;;;5114652;28;20051;-68
2022/06/27 11:54:14;;;;;;;14.95;9.15;;;21.50;65.40;;;;;;5096423;28;20012;-68
2022/06/27 11:56:42;;;;;;;12.70;8.13;;;21.50;66.40;;;;;;5114469;28;20095;-68
2022/06/27 11:59:10;;;;;;;15.02;7.22;;;21.50;66.50;;;;;;5114290;28;20075;-68
2022/06/27 12:02:01;;;;;;;9.88;7.35;;;21.50;65.80;;;;;;5114225;28;20024;-68
2022/06/27 12:04:31;;;;;;;10.70;6.53;;;21.50;65.90;;;;;;5114238;28;20031;-68
2022/06/27 12:07:08;;;;;;;9.65;6.70;;;21.50;65.40;;;;;;5114320;28;20028;-68
2022/06/27 12:09:50;;;;;;;10.85;7.47;;;21.50;65.30;;;;;;5114060;28;20028;-68
2022/06/27 12:12:17;;;;;;;;;;;21.50;65.00;;;;;;5114477;28;20074;-68
2022/06/27 12:14:49;;;;;;;9.52;6.85;;;21.50;65.10;;;;;;5113987;28;19931;-67
2022/06/27 12:17:15;;;;;;;10.05;6.70;;;21.40;65.10;;;;;;5114021;28;20031;-68
2022/06/27 12:19:41;;;;;;;12.05;7.35;;;21.30;64.80;;;;;;5113952;28;20039;-67
2022/06/27 12:22:08;;;;;;;12.88;7.18;;;21.40;66.50;;;;;;5113981;28;20024;-67
2022/06/27 12:24:34;;;;;;;8.43;6.68;;;21.40;65.80;;;;;;5113826;28;20024;-67
2022/06/27 12:27:00;;;;;;;11.13;6.82;;;21.50;65.60;;;;;;5095899;28;20032;-68
2022/06/27 12:29:26;;;;;;;8.18;6.38;;;21.50;65.30;;;;;;5113445;28;20059;-68
2022/06/27 12:31:52;;;;;;;10.75;6.82;;;21.50;65.50;;;;;;5113752;28;20077;-68
2022/06/27 12:34:18;;;;;;;8.48;6.43;;;21.50;65.80;;;;;;5113724;28;20020;-68
2022/06/27 12:36:43;;;;;;;10.52;6.18;;;21.60;65.10;;;;;;5113674;28;20049;-68
2022/06/27 12:39:10;;;;;;;8.80;6.05;;;21.60;64.20;;;;;;5113582;28;20020;-68
2022/06/27 12:41:37;;;;;;;9.18;6.20;;;21.60;64.70;;;;;;5113415;28;20052;-67
2022/06/27 12:44:03;;;;;;;9.52;6.32;;;21.60;64.80;;;;;;5113579;28;20032;-67
2022/06/27 12:46:30;;;;;;;13.70;6.75;;;21.60;64.70;;;;;;5113533;28;20062;-67